createdAt,value
2022-10-22T00:00:13.860Z,7.40
2022-10-22T00:02:41.223Z,7.50
2022-10-22T00:05:08.921Z,7.40
2022-10-22T00:07:35.960Z,7.50
2022-10-22T00:10:05.063Z,7.50
2022-10-22T00:12:32.108Z,7.50
2022-10-22T00:14:59.284Z,7.50
2022-10-22T00:17:26.202Z,7.50
2022-10-22T00:19:53.020Z,7.50
2022-10-22T00:22:19.894Z,7.40
2022-10-22T00:24:46.746Z,7.40
2022-10-22T00:27:14.178Z,7.40
2022-10-22T00:29:41.095Z,7.30
2022-10-22T00:32:08.125Z,7.30
2022-10-22T00:34:35.417Z,7.30
2022-10-22T00:37:02.252Z,7.40
2022-10-22T00:39:29.608Z,7.40
2022-10-22T00:41:57.995Z,7.30
2022-10-22T00:45:02.126Z,7.40
2022-10-22T00:47:34.855Z,7.40
2022-10-22T00:52:36.035Z,7.30
2022-10-22T00:55:03.444Z,7.30
2022-10-22T00:57:30.306Z,7.40
2022-10-22T00:59:57.976Z,7.40
2022-10-22T01:02:24.915Z,7.40
2022-10-22T01:04:51.893Z,7.40
2022-10-22T01:07:21.852Z,7.30
2022-10-22T01:10:16.233Z,7.30
2022-10-22T01:13:21.323Z,7.40
2022-10-22T01:16:11.230Z,7.40
2022-10-22T01:19:06.964Z,7.30
2022-10-22T01:21:41.918Z,7.30
2022-10-22T01:24:56.200Z,7.30
2022-10-22T01:27:52.328Z,7.30
2022-10-22T01:30:20.101Z,7.30
2022-10-22T01:32:54.529Z,7.30
2022-10-22T01:35:28.197Z,7.20
2022-10-22T01:37:59.923Z,7.20
2022-10-22T01:40:27.153Z,7.20
2022-10-22T01:43:04.198Z,7.20
2022-10-22T01:45:35.723Z,7.10
2022-10-22T01:48:41.346Z,7.10
2022-10-22T01:51:33.050Z,7.10
2022-10-22T01:54:27.457Z,7.10
2022-10-22T01:57:04.620Z,7.00
2022-10-22T01:59:55.729Z,7.00
2022-10-22T02:02:43.496Z,6.90
2022-10-22T02:05:22.109Z,6.90
2022-10-22T02:08:01.607Z,6.90
2022-10-22T02:10:30.429Z,6.90
2022-10-22T02:12:58.607Z,6.90
2022-10-22T02:15:27.705Z,6.80
2022-10-22T02:17:56.611Z,6.80
2022-10-22T02:20:28.593Z,6.80
2022-10-22T02:22:56.792Z,6.70
2022-10-22T02:25:27.704Z,6.70
2022-10-22T02:28:21.602Z,6.60
2022-10-22T02:31:00.482Z,6.60
2022-10-22T02:33:31.720Z,6.60
2022-10-22T02:36:00.373Z,6.60
2022-10-22T02:38:28.286Z,6.70
2022-10-22T02:40:55.440Z,6.60
2022-10-22T02:43:24.828Z,6.60
2022-10-22T02:45:51.953Z,6.60
2022-10-22T02:48:18.772Z,6.60
2022-10-22T02:50:45.584Z,6.60
2022-10-22T02:53:12.419Z,6.50
2022-10-22T02:55:39.272Z,6.50
2022-10-22T02:58:06.045Z,6.50
2022-10-22T03:00:32.939Z,6.50
2022-10-22T03:02:59.820Z,6.50
2022-10-22T03:05:26.653Z,6.50
2022-10-22T03:07:53.527Z,6.50
2022-10-22T03:10:20.369Z,6.50
2022-10-22T03:12:47.243Z,6.50
2022-10-22T03:15:14.606Z,6.40
2022-10-22T03:17:41.894Z,6.40
2022-10-22T03:20:09.244Z,6.30
2022-10-22T03:22:38.178Z,6.30
2022-10-22T03:25:09.424Z,6.30
2022-10-22T03:27:38.822Z,6.30
2022-10-22T03:30:06.971Z,6.30
2022-10-22T03:32:33.791Z,6.30
2022-10-22T03:37:33.784Z,6.30
2022-10-22T03:40:01.067Z,6.30
2022-10-22T03:42:27.927Z,6.30
2022-10-22T03:44:54.913Z,6.30
2022-10-22T03:47:24.488Z,6.30
2022-10-22T03:49:52.281Z,6.20
2022-10-22T03:52:19.252Z,6.30
2022-10-22T03:54:46.105Z,6.30
2022-10-22T03:57:13.105Z,6.30
2022-10-22T03:59:42.775Z,6.30
2022-10-22T04:02:11.366Z,6.30
2022-10-22T04:04:38.758Z,6.30
2022-10-22T04:07:06.893Z,6.30
2022-10-22T04:09:35.154Z,6.30
2022-10-22T04:12:02.272Z,6.20
2022-10-22T04:14:29.155Z,6.20
2022-10-22T04:16:56.004Z,6.10
2022-10-22T04:19:22.919Z,6.20
2022-10-22T04:21:49.938Z,6.30
2022-10-22T04:24:16.776Z,6.30
2022-10-22T04:26:43.834Z,6.20
2022-10-22T04:29:13.557Z,6.20
2022-10-22T04:31:44.009Z,6.30
2022-10-22T04:34:10.907Z,6.30
2022-10-22T04:36:38.088Z,6.20
2022-10-22T04:39:05.874Z,6.20
2022-10-22T04:41:35.678Z,6.20
2022-10-22T04:44:03.232Z,6.20
2022-10-22T04:46:32.412Z,6.20
2022-10-22T04:48:59.388Z,6.20
2022-10-22T04:51:27.142Z,6.20
2022-10-22T04:53:54.948Z,6.20
2022-10-22T04:56:25.136Z,6.20
2022-10-22T04:59:03.118Z,6.10
2022-10-22T05:01:35.752Z,6.10
2022-10-22T05:04:07.375Z,6.00
2022-10-22T05:06:35.969Z,6.00
2022-10-22T05:09:06.942Z,5.90
2022-10-22T05:11:38.939Z,6.00
2022-10-22T05:14:07.899Z,6.00
2022-10-22T05:16:35.549Z,5.90
2022-10-22T05:19:04.095Z,5.90
2022-10-22T05:21:30.970Z,5.90
2022-10-22T05:24:01.804Z,5.90
2022-10-22T05:26:29.316Z,5.80
2022-10-22T05:28:56.521Z,5.90
2022-10-22T05:31:23.456Z,5.90
2022-10-22T05:33:50.489Z,5.90
2022-10-22T05:36:21.184Z,5.90
2022-10-22T05:38:49.097Z,5.90
2022-10-22T05:41:24.350Z,5.80
2022-10-22T05:43:51.434Z,5.80
2022-10-22T05:46:22.863Z,5.80
2022-10-22T05:49:01.547Z,5.80
2022-10-22T05:51:30.720Z,5.80
2022-10-22T05:54:00.601Z,5.80
2022-10-22T05:56:29.519Z,5.80
2022-10-22T05:58:57.193Z,5.90
2022-10-22T06:01:27.497Z,5.90
2022-10-22T06:03:59.294Z,5.90
2022-10-22T06:06:30.643Z,5.90
2022-10-22T06:09:20.592Z,5.90
2022-10-22T06:11:48.252Z,6.00
2022-10-22T06:14:15.653Z,6.00
2022-10-22T06:16:43.298Z,6.00
2022-10-22T06:19:13.065Z,6.00
2022-10-22T06:21:40.153Z,6.10
2022-10-22T06:24:07.525Z,6.10
2022-10-22T06:26:34.539Z,6.10
2022-10-22T06:29:01.701Z,6.20
2022-10-22T06:31:28.967Z,6.20
2022-10-22T06:33:57.384Z,6.20
2022-10-22T06:36:25.296Z,6.40
2022-10-22T06:38:53.863Z,6.30
2022-10-22T06:41:24.303Z,6.40
2022-10-22T06:43:54.967Z,6.50
2022-10-22T06:46:22.855Z,6.50
2022-10-22T06:48:54.607Z,6.50
2022-10-22T06:51:22.072Z,6.60
2022-10-22T06:53:49.782Z,6.70
2022-10-22T06:56:20.021Z,6.70
2022-10-22T06:58:55.352Z,6.80
2022-10-22T07:01:24.857Z,6.80
2022-10-22T07:03:52.320Z,6.90
2022-10-22T07:06:19.984Z,6.80
2022-10-22T07:08:47.137Z,6.90
2022-10-22T07:11:19.376Z,7.00
2022-10-22T07:13:46.684Z,7.00
2022-10-22T07:16:13.843Z,7.00
2022-10-22T07:18:41.720Z,7.20
2022-10-22T07:21:10.594Z,7.20
2022-10-22T07:23:37.990Z,7.20
2022-10-22T07:26:07.552Z,7.10
2022-10-22T07:28:39.884Z,7.20
2022-10-22T07:31:08.839Z,7.30
2022-10-22T07:33:36.114Z,7.10
2022-10-22T07:36:05.629Z,7.10
2022-10-22T07:38:32.653Z,7.20
2022-10-22T07:40:59.798Z,7.10
2022-10-22T07:43:27.403Z,7.20
2022-10-22T07:45:55.956Z,7.20
2022-10-22T07:48:23.673Z,7.30
2022-10-22T07:50:51.699Z,7.30
2022-10-22T07:53:18.998Z,7.30
2022-10-22T07:55:49.442Z,7.30
2022-10-22T07:58:17.699Z,7.20
2022-10-22T08:00:45.201Z,7.20
2022-10-22T08:03:13.464Z,7.30
2022-10-22T08:05:40.922Z,7.40
2022-10-22T08:08:07.834Z,7.60
2022-10-22T08:10:35.157Z,7.60
2022-10-22T08:13:02.305Z,7.60
2022-10-22T08:15:29.500Z,7.40
2022-10-22T08:17:56.334Z,7.60
2022-10-22T08:20:23.274Z,7.60
2022-10-22T08:22:50.110Z,7.70
2022-10-22T08:25:18.329Z,7.70
2022-10-22T08:27:45.641Z,7.70
2022-10-22T08:30:13.526Z,7.60
2022-10-22T08:32:40.930Z,7.80
2022-10-22T08:35:08.263Z,7.80
2022-10-22T08:37:35.268Z,7.90
2022-10-22T08:40:02.463Z,7.90
2022-10-22T08:42:55.226Z,8.00
2022-10-22T08:46:02.055Z,8.00
2022-10-22T08:48:57.897Z,8.10
2022-10-22T08:51:35.837Z,8.10
2022-10-22T08:54:19.701Z,8.10
2022-10-22T08:56:58.333Z,8.20
2022-10-22T08:59:36.789Z,8.20
2022-10-22T09:02:11.988Z,8.30
2022-10-22T09:04:47.938Z,8.40
2022-10-22T09:07:15.323Z,8.50
2022-10-22T09:09:47.897Z,8.50
2022-10-22T09:12:20.158Z,8.50
2022-10-22T09:14:47.592Z,8.50
2022-10-22T09:17:35.445Z,8.50
2022-10-22T09:20:26.932Z,8.50
2022-10-22T09:23:33.120Z,8.60
2022-10-22T09:26:00.517Z,8.70
2022-10-22T09:28:27.404Z,8.70
2022-10-22T09:30:54.414Z,8.70
2022-10-22T09:33:30.904Z,8.70
2022-10-22T09:36:04.597Z,8.80
2022-10-22T09:38:46.152Z,8.90
2022-10-22T09:41:13.973Z,8.90
2022-10-22T09:43:41.068Z,9.10
2022-10-22T09:46:15.778Z,8.90
2022-10-22T09:48:44.482Z,9.00
2022-10-22T09:51:21.957Z,9.00
2022-10-22T09:54:01.015Z,9.00
2022-10-22T09:56:35.907Z,9.00
2022-10-22T09:59:03.963Z,9.00
2022-10-22T10:01:34.797Z,9.00
2022-10-22T10:04:13.405Z,9.00
2022-10-22T10:06:42.947Z,9.20
2022-10-22T10:09:21.332Z,9.20
2022-10-22T10:12:15.728Z,9.10
2022-10-22T10:14:54.546Z,9.20
2022-10-22T10:17:52.978Z,9.20
2022-10-22T10:20:49.743Z,9.20
2022-10-22T10:23:55.631Z,9.20
2022-10-22T10:26:48.801Z,9.30
2022-10-22T10:29:18.478Z,9.40
2022-10-22T10:32:29.561Z,9.40
2022-10-22T10:35:14.977Z,9.40
2022-10-22T10:38:24.632Z,9.50
2022-10-22T10:41:20.945Z,9.60
2022-10-22T10:44:06.486Z,9.70
2022-10-22T10:46:59.624Z,9.70
2022-10-22T10:49:29.977Z,9.70
2022-10-22T10:52:20.370Z,9.70
2022-10-22T10:55:01.516Z,9.70
2022-10-22T10:57:34.148Z,9.90
2022-10-22T11:00:11.919Z,9.90
2022-10-22T11:03:03.447Z,10.00
2022-10-22T11:05:44.394Z,10.00
2022-10-22T11:08:28.855Z,10.00
2022-10-22T11:11:06.344Z,10.00
2022-10-22T11:13:45.062Z,10.00
2022-10-22T11:16:47.647Z,10.00
2022-10-22T11:19:23.141Z,10.00
2022-10-22T11:22:18.710Z,10.00
2022-10-22T11:25:04.394Z,10.00
2022-10-22T11:27:40.190Z,9.90
2022-10-22T11:30:13.454Z,9.90
2022-10-22T11:32:42.800Z,10.20
2022-10-22T11:35:17.211Z,10.10
2022-10-22T11:37:47.182Z,10.00
2022-10-22T11:40:21.440Z,10.00
2022-10-22T11:42:59.403Z,10.20
2022-10-22T11:45:26.478Z,10.30
2022-10-22T11:47:57.830Z,10.50
2022-10-22T11:50:27.859Z,10.40
2022-10-22T11:53:04.724Z,10.30
2022-10-22T11:55:33.477Z,10.30
2022-10-22T11:58:02.180Z,10.30
2022-10-22T12:00:41.452Z,10.30
2022-10-22T12:03:44.876Z,10.40
2022-10-22T12:06:19.763Z,10.40
2022-10-22T12:08:49.497Z,10.40
2022-10-22T12:11:41.368Z,10.50
2022-10-22T12:14:19.932Z,10.50
2022-10-22T12:17:12.458Z,10.50
2022-10-22T12:19:49.497Z,10.50
2022-10-22T12:22:30.677Z,10.50
2022-10-22T12:25:02.138Z,10.50
2022-10-22T12:27:36.662Z,10.50
2022-10-22T12:30:22.959Z,10.50
2022-10-22T12:32:54.490Z,10.50
2022-10-22T12:35:25.299Z,10.50
2022-10-22T12:37:54.553Z,10.50
2022-10-22T12:40:24.204Z,10.60
2022-10-22T12:42:55.602Z,10.50
2022-10-22T12:45:23.518Z,10.50
2022-10-22T12:47:52.669Z,10.60
2022-10-22T12:50:25.604Z,10.60
2022-10-22T12:52:55.538Z,10.60
2022-10-22T12:55:25.948Z,10.60
2022-10-22T12:57:53.458Z,10.50
2022-10-22T13:00:32.382Z,10.50
2022-10-22T13:03:04.614Z,10.50
2022-10-22T13:05:38.953Z,10.50
2022-10-22T13:08:10.142Z,10.40
2022-10-22T13:10:40.657Z,10.40
2022-10-22T13:13:07.883Z,10.40
2022-10-22T13:15:38.390Z,10.40
2022-10-22T13:18:27.785Z,10.40
2022-10-22T13:21:02.651Z,10.40
2022-10-22T13:23:31.683Z,10.30
2022-10-22T13:26:14.884Z,10.30
2022-10-22T13:28:42.450Z,10.30
2022-10-22T13:31:15.624Z,10.30
2022-10-22T13:33:45.103Z,10.20
2022-10-22T13:36:15.758Z,10.30
2022-10-22T13:38:43.520Z,10.20
2022-10-22T13:41:23.895Z,10.20
2022-10-22T13:43:51.274Z,10.20
2022-10-22T13:46:18.613Z,10.20
2022-10-22T13:48:47.483Z,10.10
2022-10-22T13:51:18.557Z,10.20
2022-10-22T13:53:46.915Z,10.10
2022-10-22T13:56:18.507Z,10.10
2022-10-22T13:58:46.187Z,10.10
2022-10-22T14:01:27.261Z,10.10
2022-10-22T14:04:02.013Z,10.00
2022-10-22T14:06:31.923Z,10.00
2022-10-22T14:09:01.853Z,10.00
2022-10-22T14:11:30.792Z,9.90
2022-10-22T14:13:58.055Z,10.00
2022-10-22T14:16:27.977Z,9.90
2022-10-22T14:18:56.296Z,9.90
2022-10-22T14:21:23.765Z,9.90
2022-10-22T14:23:52.773Z,9.80
2022-10-22T14:26:25.219Z,9.80
2022-10-22T14:34:14.521Z,9.80
2022-10-22T14:36:43.951Z,9.70
2022-10-22T14:39:11.746Z,9.70
2022-10-22T14:41:39.007Z,9.60
2022-10-22T14:44:05.906Z,9.60
2022-10-22T14:46:32.768Z,9.60
2022-10-22T14:48:59.564Z,9.60
2022-10-22T14:51:26.612Z,9.60
2022-10-22T14:53:53.416Z,9.50
2022-10-22T14:56:23.369Z,9.60
2022-10-22T14:58:50.487Z,9.50
2022-10-22T15:01:17.798Z,9.50
2022-10-22T15:03:44.676Z,9.50
2022-10-22T15:06:11.677Z,9.40
2022-10-22T15:08:39.526Z,9.40
2022-10-22T15:11:12.276Z,9.40
2022-10-22T15:13:41.324Z,9.50
2022-10-22T15:16:10.288Z,9.40
2022-10-22T15:18:37.327Z,9.40
2022-10-22T15:21:13.249Z,9.30
2022-10-22T15:23:40.746Z,9.30
2022-10-22T15:26:08.913Z,9.40
2022-10-22T15:28:37.359Z,9.30
2022-10-22T15:31:04.526Z,9.30
2022-10-22T15:33:31.382Z,9.30
2022-10-22T15:35:58.273Z,9.30
2022-10-22T15:41:07.798Z,9.30
2022-10-22T15:43:35.014Z,9.20
2022-10-22T15:46:19.547Z,9.20
2022-10-22T15:48:46.872Z,9.20
2022-10-22T15:51:19.077Z,9.20
2022-10-22T15:53:52.625Z,9.20
2022-10-22T15:56:19.705Z,9.10
2022-10-22T15:58:46.884Z,9.20
2022-10-22T16:01:14.761Z,9.20
2022-10-22T16:03:42.066Z,9.10
2022-10-22T16:06:09.721Z,9.10
2022-10-22T16:08:37.597Z,9.20
2022-10-22T16:11:05.119Z,9.20
2022-10-22T16:13:32.039Z,9.20
2022-10-22T16:15:58.884Z,9.20
2022-10-22T16:18:25.729Z,9.20
2022-10-22T16:20:52.746Z,9.20
2022-10-22T16:23:20.901Z,9.20
2022-10-22T16:25:47.778Z,9.20
2022-10-22T16:28:14.850Z,9.20
2022-10-22T16:30:41.868Z,9.20
2022-10-22T16:33:10.770Z,9.20
2022-10-22T16:35:42.414Z,9.20
2022-10-22T16:38:10.954Z,9.20
2022-10-22T16:40:38.233Z,9.20
2022-10-22T16:43:05.779Z,9.10
2022-10-22T16:45:32.606Z,9.20
2022-10-22T16:47:59.408Z,9.20
2022-10-22T16:50:26.464Z,9.30
2022-10-22T16:52:53.401Z,9.30
2022-10-22T16:55:20.256Z,9.30
2022-10-22T16:57:52.014Z,9.40
2022-10-22T17:00:19.575Z,9.40
2022-10-22T17:02:52.026Z,9.40
2022-10-22T17:05:19.180Z,9.40
2022-10-22T17:07:46.034Z,9.40
2022-10-22T17:10:13.070Z,9.30
2022-10-22T17:12:41.601Z,9.30
2022-10-22T17:15:08.891Z,9.40
2022-10-22T17:17:35.777Z,9.30
2022-10-22T17:20:02.952Z,9.30
2022-10-22T17:22:29.859Z,9.30
2022-10-22T17:25:23.132Z,9.30
2022-10-22T17:27:50.541Z,9.30
2022-10-22T17:30:23.339Z,9.30
2022-10-22T17:32:54.230Z,9.20
2022-10-22T17:35:21.142Z,9.10
2022-10-22T17:37:48.037Z,9.10
2022-10-22T17:40:16.285Z,9.10
2022-10-22T17:42:45.440Z,9.10
2022-10-22T17:45:12.368Z,9.00
2022-10-22T17:47:39.568Z,9.10
2022-10-22T17:50:07.139Z,9.10
2022-10-22T17:52:34.025Z,9.00
2022-10-22T17:55:00.892Z,9.00
2022-10-22T17:57:27.915Z,8.90
2022-10-22T17:59:54.763Z,9.00
2022-10-22T18:02:21.770Z,9.00
2022-10-22T18:04:51.984Z,8.90
2022-10-22T18:07:18.905Z,8.90
2022-10-22T18:09:45.825Z,8.90
2022-10-22T18:12:13.854Z,8.90
2022-10-22T18:14:41.040Z,8.80
2022-10-22T18:17:08.253Z,8.90
2022-10-22T18:19:38.260Z,8.80
2022-10-22T18:22:07.396Z,8.80
2022-10-22T18:24:36.644Z,8.90
2022-10-22T18:27:04.052Z,8.90
2022-10-22T18:29:30.996Z,8.80
2022-10-22T18:31:57.847Z,8.90
2022-10-22T18:34:24.756Z,8.80
2022-10-22T18:36:51.641Z,8.80
2022-10-22T18:39:19.501Z,8.90
2022-10-22T18:41:46.358Z,8.80
2022-10-22T18:44:15.251Z,8.80
2022-10-22T18:46:42.501Z,8.80
2022-10-22T18:49:13.946Z,8.80
2022-10-22T18:51:40.838Z,8.70
2022-10-22T18:54:22.175Z,8.70
2022-10-22T18:56:50.466Z,8.80
2022-10-22T18:59:20.132Z,8.80
2022-10-22T19:01:47.402Z,8.70
2022-10-22T19:04:14.672Z,8.70
2022-10-22T19:06:45.394Z,8.80
2022-10-22T19:09:14.166Z,8.80
2022-10-22T19:11:41.159Z,8.80
2022-10-22T19:14:08.580Z,8.80
2022-10-22T19:16:37.674Z,8.70
2022-10-22T19:19:06.819Z,8.70
2022-10-22T19:21:34.020Z,8.70
2022-10-22T19:24:01.410Z,8.60
2022-10-22T19:26:30.044Z,8.60
2022-10-22T19:28:58.476Z,8.60
2022-10-22T19:31:26.882Z,8.60
2022-10-22T19:33:56.703Z,8.60
2022-10-22T19:36:25.304Z,8.60
2022-10-22T19:38:52.359Z,8.70
2022-10-22T19:41:21.330Z,8.60
2022-10-22T19:43:50.550Z,8.60
2022-10-22T19:46:18.549Z,8.70
2022-10-22T19:51:20.567Z,8.60
2022-10-22T19:53:48.628Z,8.60
2022-10-22T19:56:19.183Z,8.60
2022-10-22T19:58:46.422Z,8.60
2022-10-22T20:01:16.400Z,8.60
2022-10-22T20:03:43.657Z,8.50
2022-10-22T20:06:12.481Z,8.50
2022-10-22T20:08:40.268Z,8.50
2022-10-22T20:11:13.362Z,8.50
2022-10-22T20:16:14.788Z,8.40
2022-10-22T20:18:41.640Z,8.40
2022-10-22T20:21:12.056Z,8.40
2022-10-22T20:23:38.941Z,8.40
2022-10-22T20:26:06.385Z,8.40
2022-10-22T20:28:33.692Z,8.40
2022-10-22T20:31:00.665Z,8.30
2022-10-22T20:33:27.576Z,8.30
2022-10-22T20:36:02.000Z,8.40
2022-10-22T20:38:29.221Z,8.40
2022-10-22T20:41:05.408Z,8.40
2022-10-22T20:43:32.679Z,8.40
2022-10-22T20:46:00.704Z,8.40
2022-10-22T20:48:31.189Z,8.40
2022-10-22T20:50:59.469Z,8.30
2022-10-22T20:53:27.151Z,8.30
2022-10-22T20:55:57.601Z,8.30
2022-10-22T20:58:26.942Z,8.40
2022-10-22T21:00:55.462Z,8.30
2022-10-22T21:03:23.115Z,8.40
2022-10-22T21:05:50.401Z,8.30
2022-10-22T21:08:17.762Z,8.30
2022-10-22T21:10:49.205Z,8.20
2022-10-22T21:13:16.746Z,8.30
2022-10-22T21:15:43.621Z,8.20
2022-10-22T21:18:10.465Z,8.20
2022-10-22T21:20:39.816Z,8.20
2022-10-22T21:23:08.032Z,8.20
2022-10-22T21:25:39.502Z,8.20
2022-10-22T21:28:08.830Z,8.20
2022-10-22T21:30:35.829Z,8.20
2022-10-22T21:33:02.652Z,8.20
2022-10-22T21:35:29.573Z,8.20
2022-10-22T21:37:56.429Z,8.20
2022-10-22T21:40:23.372Z,8.20
2022-10-22T21:42:51.104Z,8.20
2022-10-22T21:45:22.067Z,8.20
2022-10-22T21:47:49.326Z,8.20
2022-10-22T21:50:16.239Z,8.20
2022-10-22T21:52:43.094Z,8.20
2022-10-22T21:55:10.272Z,8.10
2022-10-22T21:57:37.139Z,8.10
2022-10-22T22:00:06.902Z,8.10
2022-10-22T22:02:33.998Z,8.10
2022-10-22T22:05:00.838Z,8.20
2022-10-22T22:07:27.745Z,8.20
2022-10-22T22:09:54.536Z,8.20
2022-10-22T22:12:21.406Z,8.20
2022-10-22T22:14:48.412Z,8.30
2022-10-22T22:17:16.623Z,8.30
2022-10-22T22:19:43.564Z,8.40
2022-10-22T22:22:10.462Z,8.40
2022-10-22T22:24:39.801Z,8.40
2022-10-22T22:27:06.947Z,8.30
2022-10-22T22:29:34.318Z,8.40
2022-10-22T22:32:01.128Z,8.30
2022-10-22T22:34:27.976Z,8.30
2022-10-22T22:36:54.922Z,8.30
2022-10-22T22:39:24.108Z,8.40
2022-10-22T22:41:51.194Z,8.40
2022-10-22T22:44:18.307Z,8.40
2022-10-22T22:46:45.212Z,8.30
2022-10-22T22:49:13.462Z,8.30
2022-10-22T22:51:40.415Z,8.30
2022-10-22T22:54:07.374Z,8.30
2022-10-22T22:56:34.711Z,8.30
2022-10-22T22:59:02.098Z,8.30
2022-10-22T23:01:32.170Z,8.30
2022-10-22T23:04:10.170Z,8.40
2022-10-22T23:06:37.831Z,8.30
2022-10-22T23:09:09.588Z,8.30
2022-10-22T23:11:37.168Z,8.30
2022-10-22T23:14:06.029Z,8.30
2022-10-22T23:16:35.412Z,8.30
2022-10-22T23:19:02.408Z,8.30
2022-10-22T23:21:32.549Z,8.30
2022-10-22T23:24:01.925Z,8.30
2022-10-22T23:26:32.127Z,8.30
2022-10-22T23:29:04.121Z,8.30
2022-10-22T23:31:31.056Z,8.30
2022-10-22T23:33:58.336Z,8.30
2022-10-22T23:36:25.942Z,8.30
2022-10-22T23:38:52.830Z,8.30
2022-10-22T23:41:19.632Z,8.30
2022-10-22T23:43:46.475Z,8.30
2022-10-22T23:46:14.152Z,8.30
2022-10-22T23:48:41.289Z,8.30
2022-10-22T23:51:13.545Z,8.30
2022-10-22T23:53:41.364Z,8.30
2022-10-22T23:56:18.361Z,8.30
2022-10-22T23:58:45.550Z,8.30
